createdAt,value
2022-11-23T00:01:33.223Z,5.20
2022-11-23T00:04:07.084Z,5.28
2022-11-23T00:06:35.528Z,5.18
2022-11-23T00:09:04.646Z,5.24
2022-11-23T00:11:34.634Z,5.08
2022-11-23T00:14:02.487Z,5.08
2022-11-23T00:16:31.276Z,5.27
2022-11-23T00:19:00.514Z,5.12
2022-11-23T00:21:31.418Z,4.92
2022-11-23T00:23:59.907Z,4.90
2022-11-23T00:26:27.866Z,5.03
2022-11-23T00:28:55.894Z,4.85
2022-11-23T00:31:27.910Z,5.07
2022-11-23T00:33:57.900Z,5.12
2022-11-23T00:36:27.712Z,5.08
2022-11-23T00:38:55.904Z,5.06
2022-11-23T00:41:26.347Z,5.13
2022-11-23T00:43:54.656Z,5.04
2022-11-23T00:46:27.685Z,4.93
2022-11-23T00:48:57.648Z,5.18
2022-11-23T00:51:33.755Z,5.33
2022-11-23T00:54:06.006Z,5.01
2022-11-23T00:56:35.096Z,5.24
2022-11-23T00:59:04.164Z,5.27
2022-11-23T01:01:35.774Z,5.18
2022-11-23T01:04:05.575Z,5.19
2022-11-23T01:06:35.826Z,5.05
2022-11-23T01:09:06.642Z,4.98
2022-11-23T01:11:34.645Z,5.08
2022-11-23T01:14:02.826Z,5.22
2022-11-23T01:16:38.732Z,5.08
2022-11-23T01:19:10.686Z,5.19
2022-11-23T01:21:40.182Z,4.92
2022-11-23T01:24:10.452Z,5.11
2022-11-23T01:26:40.367Z,5.10
2022-11-23T01:29:08.757Z,5.16
2022-11-23T01:31:46.184Z,5.04
2022-11-23T01:34:16.705Z,5.11
2022-11-23T01:36:44.786Z,5.15
2022-11-23T01:39:13.267Z,5.13
2022-11-23T01:41:43.665Z,5.22
2022-11-23T01:44:32.444Z,5.25
2022-11-23T01:47:03.575Z,5.16
2022-11-23T01:49:35.557Z,5.36
2022-11-23T01:52:19.810Z,5.62
2022-11-23T01:54:50.426Z,5.64
2022-11-23T01:57:23.166Z,5.60
2022-11-23T01:59:51.509Z,5.21
2022-11-23T02:02:19.904Z,5.34
2022-11-23T02:04:52.364Z,5.35
2022-11-23T02:07:21.022Z,5.68
2022-11-23T02:09:49.654Z,5.11
2022-11-23T02:12:17.676Z,5.31
2022-11-23T02:14:46.327Z,5.31
2022-11-23T02:17:14.353Z,5.02
2022-11-23T02:19:59.806Z,4.96
2022-11-23T02:22:59.536Z,4.93
2022-11-23T02:25:33.285Z,4.89
2022-11-23T02:28:02.205Z,4.93
2022-11-23T02:30:30.928Z,4.77
2022-11-23T02:32:59.135Z,5.24
2022-11-23T02:35:27.336Z,5.08
2022-11-23T02:37:55.206Z,5.02
2022-11-23T02:40:31.277Z,4.84
2022-11-23T02:42:59.965Z,4.93
2022-11-23T02:45:41.536Z,4.94
2022-11-23T02:48:09.617Z,5.16
2022-11-23T02:50:38.427Z,5.00
2022-11-23T02:53:07.656Z,5.03
2022-11-23T02:55:36.375Z,5.25
2022-11-23T02:58:04.702Z,5.18
2022-11-23T03:00:32.890Z,5.23
2022-11-23T03:03:02.466Z,4.86
2022-11-23T03:05:30.548Z,5.04
2022-11-23T03:07:58.607Z,4.89
2022-11-23T03:10:26.971Z,4.81
2022-11-23T03:12:56.577Z,5.03
2022-11-23T03:15:24.888Z,5.07
2022-11-23T03:17:53.428Z,4.88
2022-11-23T03:20:21.638Z,4.77
2022-11-23T03:22:49.970Z,4.91
2022-11-23T03:25:18.548Z,5.08
2022-11-23T03:27:49.037Z,5.07
2022-11-23T03:30:17.011Z,5.02
2022-11-23T03:32:45.539Z,5.07
2022-11-23T03:35:13.648Z,4.77
2022-11-23T03:37:42.656Z,5.00
2022-11-23T03:40:11.607Z,4.80
2022-11-23T03:42:41.435Z,4.93
2022-11-23T03:45:09.977Z,4.98
2022-11-23T03:47:38.356Z,4.98
2022-11-23T03:50:07.251Z,4.74
2022-11-23T03:52:35.207Z,5.02
2022-11-23T03:55:03.896Z,5.02
2022-11-23T03:57:31.894Z,5.07
2022-11-23T04:00:01.174Z,5.24
2022-11-23T04:02:29.564Z,4.97
2022-11-23T04:04:59.209Z,5.06
2022-11-23T04:07:28.880Z,5.03
2022-11-23T04:09:57.327Z,4.83
2022-11-23T04:12:26.688Z,5.09
2022-11-23T04:14:54.625Z,4.97
2022-11-23T04:17:22.935Z,4.76
2022-11-23T04:19:50.837Z,4.89
2022-11-23T04:22:18.814Z,5.20
2022-11-23T04:24:47.895Z,5.13
2022-11-23T04:27:15.766Z,5.21
2022-11-23T04:29:43.746Z,5.23
2022-11-23T04:32:12.015Z,5.10
2022-11-23T04:34:40.214Z,5.20
2022-11-23T04:37:13.017Z,5.48
2022-11-23T04:39:41.985Z,4.98
2022-11-23T04:42:12.155Z,4.94
2022-11-23T04:44:40.292Z,4.99
2022-11-23T04:47:09.834Z,5.01
2022-11-23T04:49:38.432Z,4.81
2022-11-23T04:52:06.531Z,5.09
2022-11-23T04:54:35.506Z,5.13
2022-11-23T04:57:04.134Z,5.09
2022-11-23T04:59:32.461Z,5.04
2022-11-23T05:02:00.984Z,4.92
2022-11-23T05:04:30.729Z,5.12
2022-11-23T05:06:58.656Z,5.15
2022-11-23T05:09:27.015Z,5.12
2022-11-23T05:11:55.875Z,5.12
2022-11-23T05:14:23.793Z,4.94
2022-11-23T05:16:51.995Z,4.98
2022-11-23T05:19:19.873Z,5.33
2022-11-23T05:21:47.876Z,5.25
2022-11-23T05:24:16.386Z,5.19
2022-11-23T05:26:46.016Z,5.10
2022-11-23T05:29:13.987Z,4.94
2022-11-23T05:31:42.295Z,5.07
2022-11-23T05:34:10.314Z,5.06
2022-11-23T05:36:42.215Z,5.28
2022-11-23T05:39:11.049Z,5.13
2022-11-23T05:41:39.214Z,5.25
2022-11-23T05:44:08.506Z,5.30
2022-11-23T05:46:36.789Z,5.14
2022-11-23T05:49:04.834Z,5.52
2022-11-23T05:51:33.593Z,5.38
2022-11-23T05:54:02.435Z,5.69
2022-11-23T05:56:31.472Z,5.65
2022-11-23T05:59:05.554Z,5.59
2022-11-23T06:01:34.718Z,5.47
2022-11-23T06:04:04.355Z,5.37
2022-11-23T06:06:33.093Z,5.43
2022-11-23T06:09:00.993Z,5.40
2022-11-23T06:11:31.313Z,5.77
2022-11-23T06:13:59.724Z,5.80
2022-11-23T06:16:27.763Z,5.62
2022-11-23T06:18:56.854Z,5.48
2022-11-23T06:21:24.974Z,5.58
2022-11-23T06:23:53.036Z,5.30
2022-11-23T06:26:21.967Z,5.31
2022-11-23T06:28:49.895Z,5.43
2022-11-23T06:31:18.034Z,5.43
2022-11-23T06:33:46.234Z,5.79
2022-11-23T06:36:15.673Z,5.38
2022-11-23T06:38:43.693Z,5.53
2022-11-23T06:41:12.624Z,5.34
2022-11-23T06:43:40.797Z,5.25
2022-11-23T06:46:08.808Z,5.46
2022-11-23T06:48:37.915Z,5.36
2022-11-23T06:51:06.658Z,5.23
2022-11-23T06:53:36.668Z,5.08
2022-11-23T06:56:05.590Z,5.19
2022-11-23T06:58:33.885Z,5.54
2022-11-23T07:01:03.769Z,5.33
2022-11-23T07:03:33.956Z,5.40
2022-11-23T07:06:08.876Z,5.22
2022-11-23T07:08:43.416Z,5.51
2022-11-23T07:11:13.547Z,5.68
2022-11-23T07:13:41.916Z,5.52
2022-11-23T07:16:10.114Z,5.38
2022-11-23T07:18:38.237Z,5.70
2022-11-23T07:21:07.666Z,5.78
2022-11-23T07:23:40.782Z,5.48
2022-11-23T07:26:09.504Z,5.46
2022-11-23T07:28:37.691Z,5.74
2022-11-23T07:31:07.132Z,5.70
2022-11-23T07:33:35.762Z,5.71
2022-11-23T07:36:04.283Z,5.92
2022-11-23T07:38:32.404Z,5.63
2022-11-23T07:41:01.942Z,5.67
2022-11-23T07:43:31.039Z,5.45
2022-11-23T07:45:59.766Z,5.95
2022-11-23T07:48:31.866Z,6.00
2022-11-23T07:51:02.901Z,5.89
2022-11-23T07:53:31.252Z,5.98
2022-11-23T07:55:59.330Z,6.07
2022-11-23T07:58:27.828Z,6.20
2022-11-23T08:00:56.292Z,6.08
2022-11-23T08:03:29.054Z,6.24
2022-11-23T08:05:57.680Z,6.51
2022-11-23T08:08:26.292Z,6.11
2022-11-23T08:10:54.800Z,6.34
2022-11-23T08:13:22.980Z,6.03
2022-11-23T08:15:56.049Z,6.35
2022-11-23T08:18:24.658Z,6.63
2022-11-23T08:20:53.510Z,6.25
2022-11-23T08:23:21.942Z,5.99
2022-11-23T08:25:49.920Z,5.87
2022-11-23T08:28:18.731Z,6.10
2022-11-23T08:30:46.999Z,6.43
2022-11-23T08:33:15.161Z,6.33
2022-11-23T08:35:43.689Z,6.38
2022-11-23T08:38:12.205Z,6.60
2022-11-23T08:40:40.851Z,6.47
2022-11-23T08:43:09.448Z,6.16
2022-11-23T08:45:38.063Z,6.61
2022-11-23T08:48:06.631Z,6.25
2022-11-23T08:50:35.794Z,6.69
2022-11-23T08:53:03.916Z,6.54
2022-11-23T08:55:32.017Z,6.28
2022-11-23T08:58:00.630Z,6.28
2022-11-23T09:00:29.860Z,6.38
2022-11-23T09:02:59.221Z,6.59
2022-11-23T09:05:28.875Z,6.26
2022-11-23T09:08:00.715Z,6.24
2022-11-23T09:10:29.434Z,5.97
2022-11-23T09:12:58.760Z,6.62
2022-11-23T09:15:26.976Z,6.36
2022-11-23T09:17:55.540Z,5.97
2022-11-23T09:20:23.919Z,5.89
2022-11-23T09:22:55.783Z,6.23
2022-11-23T09:25:24.535Z,6.00
2022-11-23T09:27:59.254Z,6.26
2022-11-23T09:30:28.263Z,6.46
2022-11-23T09:32:58.223Z,6.14
2022-11-23T09:35:27.683Z,6.37
2022-11-23T09:38:00.086Z,6.72
2022-11-23T09:40:33.243Z,6.02
2022-11-23T09:43:27.471Z,6.09
2022-11-23T09:45:57.412Z,6.49
2022-11-23T09:48:44.161Z,5.95
2022-11-23T09:51:21.129Z,5.89
2022-11-23T09:54:05.477Z,6.20
2022-11-23T09:56:34.802Z,6.22
2022-11-23T09:59:14.539Z,6.08
2022-11-23T10:01:42.929Z,6.20
2022-11-23T10:04:18.219Z,6.18
2022-11-23T10:06:55.401Z,6.36
2022-11-23T10:09:31.358Z,6.47
2022-11-23T10:12:19.531Z,6.39
2022-11-23T10:15:26.103Z,6.40
2022-11-23T10:18:05.964Z,6.23
2022-11-23T10:21:07.830Z,6.36
2022-11-23T10:23:56.469Z,6.53
2022-11-23T10:26:33.393Z,6.70
2022-11-23T10:29:12.452Z,6.83
2022-11-23T10:31:44.422Z,6.43
2022-11-23T10:34:15.650Z,6.67
2022-11-23T10:36:44.147Z,6.45
2022-11-23T10:39:26.350Z,6.80
2022-11-23T10:41:59.902Z,6.76
2022-11-23T10:44:40.054Z,6.88
2022-11-23T10:47:08.483Z,6.91
2022-11-23T10:49:37.790Z,7.05
2022-11-23T10:52:25.490Z,6.89
2022-11-23T10:54:55.692Z,7.06
2022-11-23T10:57:45.151Z,6.63
2022-11-23T11:00:14.169Z,7.01
2022-11-23T11:02:55.960Z,7.16
2022-11-23T11:08:30.920Z,6.77
2022-11-23T11:11:30.148Z,7.09
2022-11-23T11:14:14.803Z,6.86
2022-11-23T11:16:59.811Z,7.29
2022-11-23T11:19:41.843Z,7.37
2022-11-23T11:22:35.769Z,7.19
2022-11-23T11:25:07.630Z,7.24
2022-11-23T11:27:36.110Z,6.88
2022-11-23T11:30:07.243Z,6.80
2022-11-23T11:32:54.411Z,7.21
2022-11-23T11:35:44.983Z,7.31
2022-11-23T11:38:25.142Z,6.61
2022-11-23T11:40:53.632Z,7.40
2022-11-23T11:43:36.315Z,7.44
2022-11-23T11:46:31.626Z,7.53
2022-11-23T11:49:19.852Z,7.14
2022-11-23T11:51:58.851Z,7.51
2022-11-23T11:54:52.323Z,7.45
2022-11-23T11:57:22.827Z,7.16
2022-11-23T11:59:56.181Z,7.26
2022-11-23T12:02:57.592Z,6.80
2022-11-23T12:05:53.623Z,7.17
2022-11-23T12:08:44.728Z,6.96
2022-11-23T12:11:13.807Z,7.34
2022-11-23T12:13:44.262Z,7.66
2022-11-23T12:17:31.509Z,7.61
2022-11-23T12:20:18.181Z,7.33
2022-11-23T12:23:10.435Z,7.46
2022-11-23T12:25:44.781Z,7.37
2022-11-23T12:28:35.532Z,6.58
2022-11-23T12:31:21.431Z,6.93
2022-11-23T12:34:23.432Z,6.49
2022-11-23T12:37:10.566Z,6.30
2022-11-23T12:40:01.531Z,6.53
2022-11-23T12:42:43.181Z,6.71
2022-11-23T12:45:38.972Z,7.23
2022-11-23T12:48:42.418Z,6.54
2022-11-23T12:51:35.229Z,6.69
2022-11-23T12:54:15.370Z,6.67
2022-11-23T12:57:08.937Z,6.80
2022-11-23T12:59:42.342Z,6.68
2022-11-23T13:02:52.834Z,6.62
2022-11-23T13:05:33.120Z,6.56
2022-11-23T13:08:04.394Z,6.28
2022-11-23T13:10:45.409Z,6.60
2022-11-23T13:13:43.511Z,6.84
2022-11-23T13:16:30.109Z,6.82
2022-11-23T13:19:23.492Z,6.82
2022-11-23T13:21:51.671Z,6.66
2022-11-23T13:24:38.372Z,6.61
2022-11-23T13:27:15.548Z,6.41
2022-11-23T13:29:53.600Z,6.68
2022-11-23T13:32:40.263Z,6.75
2022-11-23T13:35:11.722Z,6.98
2022-11-23T13:38:14.961Z,6.82
2022-11-23T13:40:45.561Z,6.59
2022-11-23T13:43:16.643Z,7.16
2022-11-23T13:45:45.788Z,7.31
2022-11-23T13:48:48.897Z,7.30
2022-11-23T13:51:07.251Z,6.78
2022-11-23T13:53:43.092Z,7.00
2022-11-23T13:56:29.915Z,6.46
2022-11-23T13:59:00.575Z,6.75
2022-11-23T14:02:00.631Z,6.66
2022-11-23T14:04:31.285Z,6.69
2022-11-23T14:07:18.446Z,7.29
2022-11-23T14:09:51.022Z,6.90
2022-11-23T14:12:32.202Z,7.32
2022-11-23T14:15:19.271Z,7.30
2022-11-23T14:18:11.665Z,7.02
2022-11-23T14:20:42.967Z,6.90
2022-11-23T14:23:41.773Z,7.11
2022-11-23T14:26:31.771Z,7.03
2022-11-23T14:29:45.033Z,6.60
2022-11-23T14:32:20.785Z,6.83
2022-11-23T14:35:02.783Z,6.98
2022-11-23T14:38:01.346Z,6.44
2022-11-23T14:40:53.721Z,7.05
2022-11-23T14:43:22.930Z,6.93
2022-11-23T14:45:51.047Z,7.47
2022-11-23T14:48:30.187Z,7.70
2022-11-23T14:51:01.704Z,7.09
2022-11-23T14:53:46.506Z,6.76
2022-11-23T14:56:31.791Z,7.38
2022-11-23T14:59:05.311Z,6.64
2022-11-23T15:01:35.079Z,6.62
2022-11-23T15:04:13.966Z,7.36
2022-11-23T15:06:47.134Z,7.18
2022-11-23T15:09:38.229Z,7.22
2022-11-23T15:12:25.162Z,7.36
2022-11-23T15:14:57.533Z,7.51
2022-11-23T15:17:26.228Z,7.13
2022-11-23T15:19:59.451Z,7.78
2022-11-23T15:22:29.391Z,7.97
2022-11-23T15:25:09.480Z,7.59
2022-11-23T15:27:40.946Z,7.63
2022-11-23T15:30:19.211Z,7.50
2022-11-23T15:33:04.080Z,7.66
2022-11-23T15:35:34.993Z,7.14
2022-11-23T15:38:05.511Z,7.48
2022-11-23T15:40:37.233Z,7.27
2022-11-23T15:43:07.477Z,7.77
2022-11-23T15:45:46.666Z,7.08
2022-11-23T15:48:18.891Z,7.54
2022-11-23T15:50:55.507Z,6.74
2022-11-23T15:53:29.922Z,6.86
2022-11-23T15:56:04.852Z,7.33
2022-11-23T15:58:35.421Z,7.36
2022-11-23T16:01:12.151Z,7.77
2022-11-23T16:03:42.600Z,7.59
2022-11-23T16:06:35.065Z,7.25
2022-11-23T16:09:53.796Z,7.20
2022-11-23T16:12:29.803Z,7.54
2022-11-23T16:15:45.803Z,7.58
2022-11-23T16:18:14.091Z,7.81
2022-11-23T16:20:48.302Z,7.57
2022-11-23T16:23:28.271Z,7.92
2022-11-23T16:26:05.464Z,7.55
2022-11-23T16:28:35.561Z,6.72
2022-11-23T16:31:04.616Z,6.92
2022-11-23T16:33:33.065Z,7.32
2022-11-23T16:36:01.362Z,7.18
2022-11-23T16:38:30.694Z,6.98
2022-11-23T16:40:58.831Z,6.83
2022-11-23T16:43:27.041Z,6.67
2022-11-23T16:45:56.050Z,6.55
2022-11-23T16:48:27.166Z,7.07
2022-11-23T16:50:57.487Z,6.80
2022-11-23T16:53:27.191Z,6.90
2022-11-23T16:55:57.502Z,6.62
2022-11-23T16:58:26.310Z,7.02
2022-11-23T17:00:56.900Z,6.78
2022-11-23T17:03:25.381Z,6.81
2022-11-23T17:05:53.389Z,6.85
2022-11-23T17:08:23.885Z,7.09
2022-11-23T17:10:52.711Z,6.81
2022-11-23T17:13:26.059Z,6.74
2022-11-23T17:15:54.921Z,6.95
2022-11-23T17:18:23.189Z,6.75
2022-11-23T17:20:51.274Z,6.92
2022-11-23T17:23:20.224Z,7.00
2022-11-23T17:25:48.421Z,6.82
2022-11-23T17:28:21.599Z,6.82
2022-11-23T17:30:50.413Z,7.12
2022-11-23T17:33:18.930Z,7.14
2022-11-23T17:35:47.263Z,7.32
2022-11-23T17:38:20.622Z,6.82
2022-11-23T17:40:48.690Z,7.14
2022-11-23T17:43:17.041Z,6.68
2022-11-23T17:45:45.238Z,6.95
2022-11-23T17:48:14.643Z,6.89
2022-11-23T17:50:43.553Z,6.84
2022-11-23T17:53:11.682Z,6.91
2022-11-23T17:55:40.014Z,6.97
2022-11-23T17:58:09.751Z,7.06
2022-11-23T18:00:38.390Z,7.15
2022-11-23T18:03:06.772Z,7.15
2022-11-23T18:05:34.873Z,7.07
2022-11-23T18:08:02.884Z,7.10
2022-11-23T18:10:31.163Z,7.07
2022-11-23T18:12:59.281Z,7.01
2022-11-23T18:15:27.676Z,7.35
2022-11-23T18:17:58.977Z,7.15
2022-11-23T18:20:31.142Z,7.27
2022-11-23T18:22:59.452Z,7.13
2022-11-23T18:25:27.524Z,6.82
2022-11-23T18:27:55.561Z,6.95
2022-11-23T18:30:23.844Z,7.09
2022-11-23T18:32:51.860Z,7.14
2022-11-23T18:35:19.824Z,6.78
2022-11-23T18:37:48.562Z,7.12
2022-11-23T18:40:16.622Z,7.27
2022-11-23T18:42:44.560Z,7.06
2022-11-23T18:45:12.884Z,7.44
2022-11-23T18:47:40.842Z,7.40
2022-11-23T18:50:09.269Z,7.49
2022-11-23T18:52:37.616Z,7.03
2022-11-23T18:55:06.059Z,7.35
2022-11-23T18:57:34.001Z,7.38
2022-11-23T19:00:02.883Z,6.84
2022-11-23T19:02:31.467Z,6.98
2022-11-23T19:05:00.382Z,6.86
2022-11-23T19:07:29.063Z,6.86
2022-11-23T19:09:57.242Z,7.32
2022-11-23T19:12:25.294Z,7.57
2022-11-23T19:14:53.640Z,7.18
2022-11-23T19:17:21.691Z,7.57
2022-11-23T19:19:49.722Z,6.70
2022-11-23T19:22:18.111Z,7.33
2022-11-23T19:24:46.152Z,7.66
2022-11-23T19:27:14.156Z,7.50
2022-11-23T19:29:42.532Z,7.38
2022-11-23T19:32:10.513Z,7.79
2022-11-23T19:34:38.495Z,7.15
2022-11-23T19:37:06.962Z,7.57
2022-11-23T19:39:35.199Z,7.58
2022-11-23T19:42:03.789Z,7.27
2022-11-23T19:44:32.041Z,7.50
2022-11-23T19:46:59.970Z,7.18
2022-11-23T19:49:28.215Z,7.49
2022-11-23T19:51:57.245Z,7.52
2022-11-23T19:54:25.400Z,7.42
2022-11-23T19:56:53.585Z,7.71
2022-11-23T19:59:21.940Z,7.19
2022-11-23T20:01:49.900Z,7.35
2022-11-23T20:04:18.364Z,7.49
2022-11-23T20:06:46.432Z,7.33
2022-11-23T20:09:19.628Z,7.39
2022-11-23T20:11:51.017Z,7.01
2022-11-23T20:14:20.079Z,7.47
2022-11-23T20:16:48.881Z,6.89
2022-11-23T20:19:17.007Z,7.18
2022-11-23T20:21:44.963Z,6.97
2022-11-23T20:24:14.598Z,7.43
2022-11-23T20:26:46.204Z,7.25
2022-11-23T20:29:16.750Z,7.30
2022-11-23T20:31:45.412Z,7.42
2022-11-23T20:34:18.416Z,7.35
2022-11-23T20:36:50.195Z,7.42
2022-11-23T20:39:18.954Z,7.00
2022-11-23T20:41:50.142Z,7.21
2022-11-23T20:44:19.231Z,7.38
2022-11-23T20:47:01.744Z,7.32
2022-11-23T20:49:31.823Z,7.32
2022-11-23T20:52:00.532Z,6.95
2022-11-23T20:54:28.650Z,7.37
2022-11-23T20:57:00.369Z,7.45
2022-11-23T20:59:28.731Z,7.53
2022-11-23T21:01:57.081Z,7.31
2022-11-23T21:04:25.234Z,7.36
2022-11-23T21:06:53.301Z,7.28
2022-11-23T21:09:22.316Z,7.47
2022-11-23T21:12:09.361Z,7.55
2022-11-23T21:14:38.434Z,7.35
2022-11-23T21:17:08.412Z,7.26
2022-11-23T21:19:40.321Z,7.03
2022-11-23T21:22:11.640Z,7.22
2022-11-23T21:24:40.747Z,7.21
2022-11-23T21:27:12.385Z,7.35
2022-11-23T21:29:41.020Z,7.68
2022-11-23T21:32:09.290Z,7.37
2022-11-23T21:34:37.626Z,7.34
2022-11-23T21:37:05.825Z,7.47
2022-11-23T21:39:34.710Z,7.50
2022-11-23T21:42:03.981Z,7.10
2022-11-23T21:44:32.567Z,7.59
2022-11-23T21:47:01.969Z,7.01
2022-11-23T21:49:30.332Z,7.35
2022-11-23T21:51:58.481Z,7.57
2022-11-23T21:54:27.380Z,7.59
2022-11-23T21:56:56.092Z,7.26
2022-11-23T21:59:25.901Z,7.30
2022-11-23T22:01:57.937Z,7.33
2022-11-23T22:04:26.974Z,7.42
2022-11-23T22:06:55.017Z,7.28
2022-11-23T22:09:23.010Z,7.32
2022-11-23T22:11:51.432Z,7.36
2022-11-23T22:14:20.248Z,7.26
2022-11-23T22:16:56.955Z,7.56
2022-11-23T22:19:26.110Z,7.47
2022-11-23T22:21:54.340Z,7.63
2022-11-23T22:24:23.569Z,7.16
2022-11-23T22:26:52.941Z,7.58
2022-11-23T22:29:21.189Z,7.28
2022-11-23T22:31:49.251Z,7.10
2022-11-23T22:34:17.689Z,7.42
2022-11-23T22:36:45.599Z,7.35
2022-11-23T22:39:13.627Z,7.38
2022-11-23T22:41:42.008Z,7.02
2022-11-23T22:44:10.820Z,7.09
2022-11-23T22:46:39.482Z,7.22
2022-11-23T22:49:08.000Z,7.46
2022-11-23T22:51:36.354Z,6.91
2022-11-23T22:54:04.877Z,7.31
2022-11-23T22:56:33.548Z,7.10
2022-11-23T22:59:01.456Z,6.64
2022-11-23T23:01:31.058Z,6.86
2022-11-23T23:04:01.774Z,6.66
2022-11-23T23:06:35.084Z,6.65
2022-11-23T23:09:06.657Z,6.56
2022-11-23T23:11:35.892Z,7.07
2022-11-23T23:14:04.297Z,6.76
2022-11-23T23:16:32.494Z,6.62
2022-11-23T23:19:00.709Z,6.98
2022-11-23T23:21:29.542Z,6.71
2022-11-23T23:24:00.330Z,6.95
2022-11-23T23:26:29.043Z,7.01
2022-11-23T23:28:58.498Z,7.18
2022-11-23T23:31:27.722Z,7.22
2022-11-23T23:33:57.247Z,7.02
2022-11-23T23:36:25.612Z,6.88
2022-11-23T23:38:53.636Z,7.34
2022-11-23T23:41:21.931Z,7.27
2022-11-23T23:43:49.972Z,6.68
2022-11-23T23:46:18.129Z,7.02
2022-11-23T23:48:46.558Z,6.66
2022-11-23T23:51:16.892Z,6.98
2022-11-23T23:53:45.949Z,6.81
2022-11-23T23:56:16.500Z,6.96
2022-11-23T23:58:45.031Z,6.75
